createdAt,value
2022-10-05T00:01:22.497Z,33.83
2022-10-05T00:03:49.257Z,33.20
2022-10-05T00:06:15.801Z,33.10
2022-10-05T00:08:42.944Z,33.70
2022-10-05T00:11:13.266Z,35.28
2022-10-05T00:13:40.108Z,35.38
2022-10-05T00:16:20.411Z,35.60
2022-10-05T00:18:50.103Z,36.65
2022-10-05T00:21:21.151Z,32.33
2022-10-05T00:23:47.986Z,33.80
2022-10-05T00:26:23.578Z,32.70
2022-10-05T00:28:50.577Z,33.85
2022-10-05T00:31:20.578Z,32.17
2022-10-05T00:33:48.003Z,32.30
2022-10-05T00:36:14.906Z,34.00
2022-10-05T00:38:42.564Z,33.55
2022-10-05T00:41:21.763Z,33.20
2022-10-05T00:44:03.780Z,33.08
2022-10-05T00:47:03.515Z,33.58
2022-10-05T00:49:59.091Z,31.27
2022-10-05T00:52:46.043Z,32.88
2022-10-05T00:55:44.939Z,32.33
2022-10-05T00:58:29.581Z,32.58
2022-10-05T01:01:16.670Z,32.75
2022-10-05T01:04:09.425Z,31.40
2022-10-05T01:06:41.953Z,34.17
2022-10-05T01:09:45.644Z,32.95
2022-10-05T01:12:41.191Z,33.78
2022-10-05T01:15:13.491Z,34.65
2022-10-05T01:18:17.308Z,34.25
2022-10-05T01:21:08.243Z,32.80
2022-10-05T01:24:02.934Z,33.90
2022-10-05T01:26:47.547Z,33.90
2022-10-05T01:29:25.199Z,33.75
2022-10-05T01:32:12.666Z,35.72
2022-10-05T01:34:52.804Z,35.85
2022-10-05T01:37:19.116Z,36.90
2022-10-05T01:39:59.455Z,34.55
2022-10-05T01:43:05.107Z,35.55
2022-10-05T01:45:47.612Z,35.97
2022-10-05T01:48:32.735Z,35.72
2022-10-05T01:51:25.704Z,35.88
2022-10-05T01:54:10.051Z,34.92
2022-10-05T01:56:46.850Z,35.65
2022-10-05T01:59:48.765Z,34.40
2022-10-05T02:02:18.852Z,36.13
2022-10-05T02:05:02.782Z,36.00
2022-10-05T02:07:43.646Z,37.45
2022-10-05T02:10:26.066Z,34.88
2022-10-05T02:12:59.775Z,36.33
2022-10-05T02:15:40.540Z,35.95
2022-10-05T02:18:13.374Z,34.78
2022-10-05T02:20:43.375Z,35.03
2022-10-05T02:23:17.119Z,34.90
2022-10-05T02:25:46.773Z,34.80
2022-10-05T02:28:22.447Z,35.72
2022-10-05T02:30:58.902Z,35.70
2022-10-05T02:33:33.095Z,34.78
2022-10-05T02:36:05.352Z,33.97
2022-10-05T02:38:47.182Z,34.92
2022-10-05T02:41:31.799Z,35.92
2022-10-05T02:44:28.289Z,34.65
2022-10-05T02:47:12.505Z,32.45
2022-10-05T02:50:00.515Z,34.72
2022-10-05T02:52:43.559Z,35.80
2022-10-05T02:55:19.482Z,35.42
2022-10-05T02:58:04.614Z,32.63
2022-10-05T03:00:39.404Z,33.30
2022-10-05T03:03:27.959Z,33.83
2022-10-05T03:06:02.604Z,33.33
2022-10-05T03:08:38.269Z,35.65
2022-10-05T03:11:25.428Z,33.33
2022-10-05T03:14:10.422Z,34.63
2022-10-05T03:16:52.038Z,32.35
2022-10-05T03:19:48.813Z,32.45
2022-10-05T03:22:28.896Z,33.67
2022-10-05T03:25:24.621Z,32.15
2022-10-05T03:28:18.922Z,33.83
2022-10-05T03:31:06.356Z,34.38
2022-10-05T03:33:32.687Z,31.67
2022-10-05T03:36:12.545Z,35.25
2022-10-05T03:38:59.264Z,34.33
2022-10-05T03:41:48.302Z,31.45
2022-10-05T03:44:23.261Z,33.65
2022-10-05T03:47:16.043Z,31.25
2022-10-05T03:50:17.312Z,33.78
2022-10-05T03:53:06.294Z,33.13
2022-10-05T03:55:52.129Z,34.20
2022-10-05T03:58:25.333Z,35.35
2022-10-05T04:00:56.081Z,30.63
2022-10-05T04:03:30.255Z,34.50
2022-10-05T04:06:02.968Z,32.83
2022-10-05T04:08:48.338Z,35.72
2022-10-05T04:11:21.296Z,33.92
2022-10-05T04:13:57.373Z,34.17
2022-10-05T04:16:31.546Z,34.78
2022-10-05T04:19:21.252Z,31.23
2022-10-05T04:22:09.823Z,33.05
2022-10-05T04:24:58.539Z,33.83
2022-10-05T04:27:39.687Z,34.70
2022-10-05T04:30:12.350Z,34.38
2022-10-05T04:32:48.288Z,33.83
2022-10-05T04:35:40.972Z,34.20
2022-10-05T04:38:37.452Z,35.72
2022-10-05T04:41:31.658Z,33.63
2022-10-05T04:44:25.571Z,39.30
2022-10-05T04:47:16.919Z,35.30
2022-10-05T04:49:56.623Z,36.50
2022-10-05T04:52:43.918Z,32.38
2022-10-05T04:55:22.598Z,34.65
2022-10-05T04:58:10.296Z,34.88
2022-10-05T05:00:49.363Z,34.78
2022-10-05T05:03:51.117Z,35.25
2022-10-05T05:06:38.976Z,36.15
2022-10-05T05:09:17.441Z,37.28
2022-10-05T05:12:05.720Z,38.83
2022-10-05T05:14:57.683Z,35.95
2022-10-05T05:17:33.251Z,35.88
2022-10-05T05:20:18.865Z,40.10
2022-10-05T05:23:03.954Z,37.42
2022-10-05T05:25:35.839Z,35.47
2022-10-05T05:28:23.539Z,37.63
2022-10-05T05:31:05.467Z,35.55
2022-10-05T05:33:40.981Z,32.00
2022-10-05T05:36:33.856Z,33.75
2022-10-05T05:39:22.009Z,37.08
2022-10-05T05:41:54.345Z,35.33
2022-10-05T05:44:25.981Z,34.67
2022-10-05T05:47:13.913Z,31.30
2022-10-05T05:50:08.670Z,35.67
2022-10-05T05:52:41.291Z,34.95
2022-10-05T05:55:19.005Z,33.08
2022-10-05T05:58:04.182Z,34.42
2022-10-05T06:00:37.523Z,35.47
2022-10-05T06:03:14.736Z,33.03
2022-10-05T06:05:46.638Z,31.15
2022-10-05T06:08:49.702Z,28.33
2022-10-05T06:11:31.715Z,33.33
2022-10-05T06:14:04.729Z,34.20
2022-10-05T06:16:37.006Z,36.10
2022-10-05T06:19:16.640Z,35.75
2022-10-05T06:21:44.785Z,32.40
2022-10-05T06:24:15.223Z,32.78
2022-10-05T06:26:59.636Z,29.15
2022-10-05T06:29:49.193Z,30.92
2022-10-05T06:32:34.832Z,31.05
2022-10-05T06:35:11.614Z,27.80
2022-10-05T06:37:53.191Z,29.95
2022-10-05T06:40:34.239Z,29.42
2022-10-05T06:43:12.447Z,28.30
2022-10-05T06:46:04.048Z,30.55
2022-10-05T06:48:51.405Z,29.88
2022-10-05T06:51:43.235Z,23.85
2022-10-05T06:54:17.826Z,24.70
2022-10-05T06:57:15.005Z,29.75
2022-10-05T06:59:53.313Z,30.13
2022-10-05T07:02:31.126Z,26.38
2022-10-05T07:05:27.471Z,23.50
2022-10-05T07:07:58.021Z,27.50
2022-10-05T07:11:04.566Z,25.98
2022-10-05T07:14:07.851Z,23.75
2022-10-05T07:16:49.416Z,26.33
2022-10-05T07:19:32.513Z,24.95
2022-10-05T07:22:27.399Z,24.63
2022-10-05T07:25:08.500Z,25.50
2022-10-05T07:28:02.676Z,24.20
2022-10-05T07:30:33.563Z,23.67
2022-10-05T07:33:24.193Z,26.08
2022-10-05T07:36:18.661Z,27.67
2022-10-05T07:38:58.737Z,26.42
2022-10-05T07:41:31.252Z,28.63
2022-10-05T07:44:12.934Z,28.17
2022-10-05T07:47:02.089Z,29.63
2022-10-05T07:49:57.951Z,27.48
2022-10-05T07:52:38.003Z,28.02
2022-10-05T07:55:19.090Z,28.83
2022-10-05T07:58:02.534Z,28.98
2022-10-05T08:00:48.814Z,27.42
2022-10-05T08:03:40.774Z,25.90
2022-10-05T08:06:16.241Z,27.52
2022-10-05T08:08:57.344Z,27.08
2022-10-05T08:11:50.115Z,26.27
2022-10-05T08:14:25.485Z,27.02
2022-10-05T08:16:55.635Z,28.05
2022-10-05T08:19:32.899Z,28.00
2022-10-05T08:22:06.258Z,26.63
2022-10-05T08:24:41.826Z,27.90
2022-10-05T08:27:08.079Z,24.80
2022-10-05T08:29:41.185Z,26.05
2022-10-05T08:32:30.435Z,28.30
2022-10-05T08:35:21.319Z,26.98
2022-10-05T08:37:49.289Z,27.80
2022-10-05T08:40:18.638Z,26.25
2022-10-05T08:43:09.980Z,29.10
2022-10-05T08:45:55.185Z,29.20
2022-10-05T08:48:24.743Z,28.77
2022-10-05T08:51:26.703Z,28.42
2022-10-05T08:54:02.013Z,29.23
2022-10-05T08:56:37.370Z,28.00
2022-10-05T08:59:27.736Z,28.25
2022-10-05T09:02:19.073Z,31.77
2022-10-05T09:05:27.754Z,32.58
2022-10-05T09:08:20.643Z,34.50
2022-10-05T09:11:11.504Z,31.75
2022-10-05T09:13:47.090Z,37.13
2022-10-05T09:16:58.538Z,35.28
2022-10-05T09:19:43.738Z,35.72
2022-10-05T09:22:33.745Z,37.28
2022-10-05T09:25:18.477Z,38.50
2022-10-05T09:31:12.519Z,31.70
2022-10-05T09:33:39.169Z,35.75
2022-10-05T09:36:30.138Z,34.50
2022-10-05T09:39:02.458Z,34.20
2022-10-05T09:41:44.077Z,32.22
2022-10-05T09:47:29.083Z,32.25
2022-10-05T09:50:14.174Z,31.58
2022-10-05T09:53:24.055Z,32.83
2022-10-05T09:56:21.011Z,31.83
2022-10-05T09:58:56.496Z,27.73
2022-10-05T10:01:41.114Z,31.73
2022-10-05T10:07:36.383Z,25.67
2022-10-05T10:10:29.151Z,30.52
2022-10-05T10:13:14.371Z,30.08
2022-10-05T10:15:54.641Z,29.15
2022-10-05T10:18:39.898Z,27.75
2022-10-05T10:21:30.913Z,28.08
2022-10-05T10:24:15.554Z,25.52
2022-10-05T10:26:44.992Z,24.73
2022-10-05T10:29:20.397Z,27.90
2022-10-05T10:32:16.408Z,26.40
2022-10-05T10:35:08.157Z,25.80
2022-10-05T10:37:53.042Z,23.88
2022-10-05T10:40:58.004Z,24.02
2022-10-05T10:43:27.502Z,23.17
2022-10-05T10:46:06.388Z,20.83
2022-10-05T10:48:53.829Z,22.40
2022-10-05T10:51:58.253Z,25.23
2022-10-05T10:54:42.079Z,20.17
2022-10-05T10:57:34.653Z,25.83
2022-10-05T11:00:15.515Z,23.67
2022-10-05T11:03:00.767Z,24.77
2022-10-05T11:05:48.788Z,23.13
2022-10-05T11:08:41.259Z,24.38
2022-10-05T11:11:19.843Z,22.42
2022-10-05T11:14:26.459Z,20.73
2022-10-05T11:17:25.175Z,18.55
2022-10-05T11:20:05.059Z,19.25
2022-10-05T11:22:48.018Z,17.85
2022-10-05T11:25:36.229Z,12.82
2022-10-05T11:28:21.563Z,14.98
2022-10-05T11:31:30.201Z,14.80
2022-10-05T11:34:09.825Z,13.20
2022-10-05T11:37:15.861Z,15.35
2022-10-05T11:39:44.532Z,16.08
2022-10-05T11:42:41.439Z,14.90
2022-10-05T11:45:19.036Z,15.85
2022-10-05T11:48:07.236Z,15.45
2022-10-05T11:50:56.158Z,17.27
2022-10-05T11:53:37.420Z,14.75
2022-10-05T11:56:25.683Z,12.30
2022-10-05T11:59:20.820Z,12.73
2022-10-05T12:04:45.342Z,9.95
2022-10-05T12:07:32.049Z,8.27
2022-10-05T12:10:21.176Z,10.27
2022-10-05T12:13:03.804Z,12.55
2022-10-05T12:15:50.251Z,8.65
2022-10-05T12:18:32.507Z,10.45
2022-10-05T12:21:05.196Z,10.57
2022-10-05T12:23:42.319Z,8.40
2022-10-05T12:26:16.274Z,8.80
2022-10-05T12:29:01.080Z,9.48
2022-10-05T12:31:41.456Z,11.65
2022-10-05T12:34:20.776Z,9.25
2022-10-05T12:37:04.057Z,9.65
2022-10-05T12:39:56.796Z,9.52
2022-10-05T12:42:51.165Z,9.80
2022-10-05T12:45:31.836Z,8.90
2022-10-05T12:48:19.767Z,8.30
2022-10-05T12:50:51.074Z,12.85
2022-10-05T12:53:48.399Z,14.30
2022-10-05T12:56:21.706Z,15.48
2022-10-05T12:58:57.496Z,14.77
2022-10-05T13:02:05.770Z,17.33
2022-10-05T13:04:44.061Z,15.60
2022-10-05T13:07:39.268Z,16.27
2022-10-05T13:12:54.267Z,14.77
2022-10-05T13:15:43.900Z,14.50
2022-10-05T13:18:29.658Z,16.05
2022-10-05T13:21:12.408Z,18.65
2022-10-05T13:24:06.927Z,15.55
2022-10-05T13:26:37.944Z,14.68
2022-10-05T13:29:33.119Z,14.35
2022-10-05T13:32:15.694Z,16.88
2022-10-05T13:34:53.040Z,19.52
2022-10-05T13:37:50.320Z,19.95
2022-10-05T13:40:49.473Z,17.13
2022-10-05T13:43:25.379Z,17.83
2022-10-05T13:45:57.044Z,20.08
2022-10-05T13:48:49.507Z,17.38
2022-10-05T13:51:19.010Z,17.17
2022-10-05T13:53:53.077Z,18.50
2022-10-05T13:56:33.489Z,20.55
2022-10-05T13:59:30.574Z,20.80
2022-10-05T14:02:09.233Z,20.58
2022-10-05T14:04:58.275Z,21.65
2022-10-05T14:07:48.790Z,19.70
2022-10-05T14:10:31.370Z,21.85
2022-10-05T14:12:58.115Z,21.73
2022-10-05T14:15:38.489Z,22.70
2022-10-05T14:18:37.382Z,23.50
2022-10-05T14:21:13.173Z,24.88
2022-10-05T14:23:40.025Z,25.05
2022-10-05T14:26:34.752Z,26.38
2022-10-05T14:29:17.127Z,23.05
2022-10-05T14:32:13.407Z,22.70
2022-10-05T14:34:45.712Z,21.55
2022-10-05T14:37:24.703Z,24.55
2022-10-05T14:39:54.621Z,21.52
2022-10-05T14:42:27.014Z,23.13
2022-10-05T14:45:12.498Z,22.67
2022-10-05T14:47:53.008Z,21.92
2022-10-05T14:50:26.026Z,19.92
2022-10-05T14:53:11.251Z,21.48
2022-10-05T14:56:17.203Z,25.77
2022-10-05T14:59:04.193Z,15.60
2022-10-05T15:01:33.858Z,16.52
2022-10-05T15:04:16.625Z,16.98
2022-10-05T15:06:53.367Z,23.45
2022-10-05T15:09:24.617Z,20.98
2022-10-05T15:11:53.582Z,24.05
2022-10-05T15:14:38.185Z,22.25
2022-10-05T15:17:16.121Z,21.85
2022-10-05T15:19:48.111Z,18.13
2022-10-05T15:22:21.738Z,18.65
2022-10-05T15:25:12.938Z,23.02
2022-10-05T15:28:05.604Z,16.05
2022-10-05T15:30:37.305Z,17.20
2022-10-05T15:33:15.430Z,20.08
2022-10-05T15:35:55.835Z,17.83
2022-10-05T15:38:28.519Z,19.38
2022-10-05T15:41:22.485Z,19.25
2022-10-05T15:44:07.396Z,24.90
2022-10-05T15:46:43.621Z,26.15
2022-10-05T15:49:24.203Z,27.58
2022-10-05T15:52:23.760Z,23.80
2022-10-05T15:55:09.087Z,24.45
2022-10-05T15:57:47.979Z,19.52
2022-10-05T16:00:19.879Z,22.02
2022-10-05T16:02:52.087Z,21.90
2022-10-05T16:05:56.815Z,18.42
2022-10-05T16:08:50.370Z,21.20
2022-10-05T16:11:46.357Z,22.27
2022-10-05T16:14:33.000Z,19.20
2022-10-05T16:17:18.676Z,22.83
2022-10-05T16:20:07.962Z,17.05
2022-10-05T16:22:49.174Z,19.08
2022-10-05T16:25:36.428Z,22.48
2022-10-05T16:28:06.094Z,20.13
2022-10-05T16:31:09.894Z,20.83
2022-10-05T16:34:17.227Z,18.67
2022-10-05T16:36:57.636Z,17.48
2022-10-05T16:39:48.478Z,13.52
2022-10-05T16:42:32.761Z,12.77
2022-10-05T16:45:20.699Z,12.75
2022-10-05T16:48:03.007Z,10.52
2022-10-05T16:50:58.119Z,10.43
2022-10-05T16:53:36.221Z,9.80
2022-10-05T16:56:11.131Z,8.95
2022-10-05T16:58:59.433Z,11.18
2022-10-05T17:01:58.764Z,9.65
2022-10-05T17:05:02.176Z,11.38
2022-10-05T17:07:57.902Z,13.38
2022-10-05T17:10:37.084Z,11.98
2022-10-05T17:13:40.965Z,17.52
2022-10-05T17:16:33.084Z,14.23
2022-10-05T17:19:32.158Z,15.73
2022-10-05T17:22:03.410Z,13.35
2022-10-05T17:24:49.128Z,11.77
2022-10-05T17:27:20.987Z,9.68
2022-10-05T17:29:47.561Z,10.23
2022-10-05T17:32:17.050Z,10.00
2022-10-05T17:35:18.251Z,9.20
2022-10-05T17:38:27.562Z,10.60
2022-10-05T17:41:00.201Z,11.07
2022-10-05T17:43:28.506Z,9.57
2022-10-05T17:46:03.353Z,9.77
2022-10-05T17:48:48.260Z,8.57
2022-10-05T17:51:53.050Z,9.05
2022-10-05T17:54:43.986Z,9.60
2022-10-05T17:57:10.238Z,9.52
2022-10-05T18:00:07.437Z,9.80
2022-10-05T18:02:39.785Z,10.55
2022-10-05T18:05:12.044Z,9.98
2022-10-05T18:07:40.186Z,8.05
2022-10-05T18:10:09.505Z,9.32
2022-10-05T18:12:39.236Z,10.32
2022-10-05T18:15:05.484Z,10.30
2022-10-05T18:18:32.051Z,10.20
2022-10-05T18:21:14.315Z,10.15
2022-10-05T18:23:52.555Z,10.60
2022-10-05T18:26:32.651Z,9.68
2022-10-05T18:29:47.183Z,9.75
2022-10-05T18:32:29.246Z,9.43
2022-10-05T18:35:03.441Z,9.85
2022-10-05T18:37:56.944Z,9.77
2022-10-05T18:40:39.874Z,9.55
2022-10-05T18:43:27.637Z,8.77
2022-10-05T18:46:32.577Z,9.52
2022-10-05T18:49:01.620Z,8.98
2022-10-05T18:51:39.457Z,9.35
2022-10-05T18:54:32.181Z,10.70
2022-10-05T18:57:12.398Z,10.80
2022-10-05T18:59:51.343Z,9.45
2022-10-05T19:02:47.390Z,10.05
2022-10-05T19:05:49.138Z,9.85
2022-10-05T19:08:41.130Z,9.63
2022-10-05T19:11:27.799Z,10.63
2022-10-05T19:14:22.057Z,11.07
2022-10-05T19:17:00.426Z,13.77
2022-10-05T19:19:43.907Z,11.73
2022-10-05T19:22:22.001Z,11.00
2022-10-05T19:25:21.566Z,10.75
2022-10-05T19:28:12.881Z,12.85
2022-10-05T19:30:59.121Z,10.93
2022-10-05T19:34:07.534Z,11.93
2022-10-05T19:37:22.276Z,10.45
2022-10-05T19:40:04.617Z,10.20
2022-10-05T19:42:45.041Z,13.32
2022-10-05T19:45:17.730Z,12.32
2022-10-05T19:48:02.339Z,11.98
2022-10-05T19:50:32.633Z,13.82
2022-10-05T19:53:13.861Z,17.30
2022-10-05T19:55:43.474Z,19.38
2022-10-05T19:58:22.183Z,20.38
2022-10-05T20:01:00.821Z,19.02
2022-10-05T20:03:32.315Z,19.85
2022-10-05T20:06:01.152Z,20.05
2022-10-05T20:08:36.905Z,20.35
2022-10-05T20:11:07.358Z,19.98
2022-10-05T20:13:35.169Z,20.40
2022-10-05T20:16:35.695Z,19.08
2022-10-05T20:19:23.899Z,18.35
2022-10-05T20:21:59.695Z,18.48
2022-10-05T20:24:28.544Z,19.33
2022-10-05T20:27:06.899Z,21.35
2022-10-05T20:29:41.247Z,17.75
2022-10-05T20:32:12.560Z,18.75
2022-10-05T20:34:44.822Z,17.17
2022-10-05T20:37:14.187Z,18.95
2022-10-05T20:39:40.967Z,17.50
2022-10-05T20:42:08.322Z,18.15
2022-10-05T20:44:35.419Z,20.17
2022-10-05T20:47:02.071Z,19.77
2022-10-05T20:49:30.950Z,19.98
2022-10-05T20:51:58.667Z,20.25
2022-10-05T20:54:26.434Z,22.13
2022-10-05T20:56:54.761Z,21.83
2022-10-05T20:59:25.527Z,24.67
2022-10-05T21:01:52.185Z,21.63
2022-10-05T21:04:23.860Z,21.50
2022-10-05T21:06:50.635Z,22.42
2022-10-05T21:09:21.241Z,26.42
2022-10-05T21:11:54.422Z,24.95
2022-10-05T21:14:20.868Z,27.02
2022-10-05T21:16:47.267Z,26.23
2022-10-05T21:19:14.269Z,29.88
2022-10-05T21:21:42.413Z,22.67
2022-10-05T21:24:09.655Z,26.30
2022-10-05T21:26:37.383Z,29.65
2022-10-05T21:29:07.786Z,35.78
2022-10-05T21:31:37.299Z,34.85
2022-10-05T21:34:04.705Z,62.25
2022-10-05T21:36:32.137Z,70.03
2022-10-05T21:38:58.511Z,70.25
2022-10-05T21:41:25.195Z,56.30
2022-10-05T21:43:51.701Z,54.00
2022-10-05T21:46:22.428Z,53.17
2022-10-05T21:48:49.509Z,55.53
2022-10-05T21:51:18.753Z,65.75
2022-10-05T21:53:53.375Z,61.83
2022-10-05T21:56:22.275Z,56.90
2022-10-05T21:58:50.078Z,56.20
2022-10-05T22:01:22.273Z,63.25
2022-10-05T22:03:49.186Z,54.35
2022-10-05T22:06:15.665Z,60.35
2022-10-05T22:08:42.034Z,56.00
2022-10-05T22:11:12.015Z,55.55
2022-10-05T22:13:52.063Z,54.53
2022-10-05T22:16:21.157Z,53.85
2022-10-05T22:18:48.917Z,54.20
2022-10-05T22:21:16.473Z,54.67
2022-10-05T22:23:45.439Z,51.10
2022-10-05T22:26:16.705Z,50.17
2022-10-05T22:28:43.554Z,47.65
2022-10-05T22:31:11.549Z,50.80
2022-10-05T22:33:38.130Z,48.28
2022-10-05T22:36:05.838Z,43.90
2022-10-05T22:38:32.813Z,45.67
2022-10-05T22:40:59.372Z,45.35
2022-10-05T22:43:26.991Z,43.20
2022-10-05T22:45:54.073Z,45.70
2022-10-05T22:48:20.616Z,40.97
2022-10-05T22:50:49.263Z,47.00
2022-10-05T22:53:15.673Z,44.70
2022-10-05T22:55:42.023Z,46.25
2022-10-05T22:58:08.375Z,51.85
2022-10-05T23:00:56.872Z,52.03
2022-10-05T23:03:21.129Z,47.50
2022-10-05T23:05:47.507Z,44.15
2022-10-05T23:08:13.967Z,47.75
2022-10-05T23:10:40.304Z,48.83
2022-10-05T23:13:07.827Z,51.58
2022-10-05T23:15:34.419Z,52.90
2022-10-05T23:18:00.789Z,57.85
2022-10-05T23:20:27.305Z,57.90
2022-10-05T23:22:53.868Z,55.15
2022-10-05T23:25:22.069Z,52.85
2022-10-05T23:27:48.486Z,51.88
2022-10-05T23:30:14.939Z,65.43
2022-10-05T23:32:43.370Z,62.95
2022-10-05T23:35:12.252Z,58.63
2022-10-05T23:37:43.892Z,58.65
2022-10-05T23:40:14.210Z,67.13
2022-10-05T23:42:41.261Z,70.80
2022-10-05T23:45:09.984Z,69.88
2022-10-05T23:47:36.515Z,65.72
2022-10-05T23:50:04.511Z,64.07
2022-10-05T23:52:30.877Z,68.80
2022-10-05T23:54:57.285Z,63.20
2022-10-05T23:57:23.719Z,65.18
2022-10-05T23:59:50.278Z,61.70
